Time;durP1;ratioP1;P1;durP2;ratioP2;P2;SDS_P1;SDS_P2;PMS_P1;PMS_P2;Temp;Humidity;BMP_temperature;BMP_pressure;BME280_temperature;BME280_humidity;BME280_pressure;Samples;Min_cycle;Max_cycle;Signal;HPM_P1;HPM_P2
2022/02/08 00:00:23;;;;;;;7.30;3.83;;;22.10;32.10;;;;;;5044811;28;20527;-52
2022/02/08 00:02:53;;;;;;;5.40;3.47;;;22.10;32.10;;;;;;5046187;28;20121;-51
2022/02/08 00:05:20;;;;;;;5.03;3.20;;;22.10;32.10;;;;;;5046062;28;20053;-53
2022/02/08 00:07:50;;;;;;;6.10;3.22;;;22.10;32.20;;;;;;5047305;28;20028;-53
2022/02/08 00:10:16;;;;;;;5.13;3.63;;;22.10;32.10;;;;;;5045382;28;20040;-51
2022/02/08 00:12:43;;;;;;;5.22;3.08;;;22.10;32.20;;;;;;5044332;28;20026;-52
2022/02/08 00:15:09;;;;;;;4.75;3.42;;;22.10;32.20;;;;;;5032092;28;20116;-53
2022/02/08 00:17:35;;;;;;;6.05;3.63;;;22.10;32.20;;;;;;5047529;28;20077;-56
2022/02/08 00:20:03;;;;;;;5.05;3.47;;;22.10;32.20;;;;;;5046430;28;20045;-52
2022/02/08 00:22:30;;;;;;;5.03;3.17;;;22.10;32.30;;;;;;5044721;28;20022;-54
2022/02/08 00:24:56;;;;;;;5.65;3.22;;;22.10;32.40;;;;;;5044693;28;20071;-56
2022/02/08 00:27:21;;;;;;;5.53;3.45;;;22.10;32.50;;;;;;5045702;28;20068;-57
2022/02/08 00:29:47;;;;;;;5.75;3.75;;;22.10;32.60;;;;;;5046625;28;20048;-51
2022/02/08 00:32:13;;;;;;;5.20;3.45;;;22.10;32.70;;;;;;5046439;28;20024;-51
2022/02/08 00:34:39;;;;;;;5.85;3.20;;;22.10;32.70;;;;;;5030221;28;20052;-53
2022/02/08 00:37:05;;;;;;;4.47;3.10;;;22.00;32.70;;;;;;5043749;28;20468;-51
2022/02/08 00:39:32;;;;;;;4.65;2.90;;;22.10;32.70;;;;;;5045049;28;20021;-52
2022/02/08 00:42:07;;;;;;;4.45;2.90;;;22.00;32.70;;;;;;5026968;28;20093;-50
2022/02/08 00:45:01;;;;;;;4.70;3.47;;;22.00;32.70;;;;;;5044551;28;20504;-49
2022/02/08 00:47:34;;;;;;;3.67;2.60;;;22.00;32.70;;;;;;5043686;28;20061;-54
2022/02/08 00:50:09;;;;;;;4.20;2.67;;;22.00;32.80;;;;;;5029233;28;20445;-51
2022/02/08 00:52:38;;;;;;;5.15;3.05;;;22.00;32.80;;;;;;5025166;28;20393;-49
2022/02/08 00:55:08;;;;;;;3.90;2.40;;;22.00;32.80;;;;;;5026801;28;20017;-52
2022/02/08 00:57:34;;;;;;;4.78;3.08;;;22.00;32.90;;;;;;5045116;28;20029;-56
2022/02/08 01:00:00;;;;;;;3.65;2.47;;;21.90;32.80;;;;;;5026065;28;20103;-51
2022/02/08 01:02:27;;;;;;;3.67;2.47;;;22.00;32.90;;;;;;5026803;28;20029;-50
2022/02/08 01:04:59;;;;;;;3.92;2.50;;;22.00;32.90;;;;;;5027568;28;20079;-51
2022/02/08 01:07:26;;;;;;;5.32;2.97;;;22.00;33.00;;;;;;5045770;28;20044;-54
2022/02/08 01:09:59;;;;;;;4.30;2.58;;;22.00;33.00;;;;;;5045606;28;20025;-55
2022/02/08 01:12:26;;;;;;;4.32;2.50;;;22.00;33.00;;;;;;5026834;28;20444;-52
2022/02/08 01:14:53;;;;;;;5.28;2.63;;;22.00;33.10;;;;;;5045130;28;20030;-54
2022/02/08 01:17:21;;;;;;;4.00;2.55;;;22.00;33.10;;;;;;5027483;28;20313;-55
2022/02/08 01:19:57;;;;;;;3.28;2.17;;;21.90;33.10;;;;;;5048925;28;20021;-56
2022/02/08 01:22:23;;;;;;;3.40;2.22;;;21.90;33.10;;;;;;5055532;28;20025;-53
2022/02/08 01:24:51;;;;;;;3.67;2.42;;;21.90;33.10;;;;;;5054012;28;20120;-51
2022/02/08 01:27:25;;;;;;;3.35;2.20;;;21.90;33.20;;;;;;5055144;28;20037;-51
2022/02/08 01:42:45;;;;;;;5.80;3.28;;;21.90;33.40;;;;;;5018980;28;20448;-49
2022/02/08 01:47:50;;;;;;;3.72;2.38;;;21.90;33.40;;;;;;5043202;28;20063;-55
2022/02/08 01:50:17;;;;;;;4.82;2.45;;;21.90;33.50;;;;;;5018786;28;20029;-54
2022/02/08 01:52:45;;;;;;;4.80;2.67;;;21.90;33.50;;;;;;5017907;28;20036;-49
2022/02/08 01:55:17;;;;;;;3.55;2.33;;;21.90;33.60;;;;;;5035182;28;20067;-52
2022/02/08 01:57:45;;;;;;;3.67;1.98;;;21.90;33.60;;;;;;5035565;28;20372;-50
2022/02/08 02:00:13;;;;;;;4.68;2.90;;;21.90;33.60;;;;;;5023962;28;20041;-56
2022/02/08 02:02:39;;;;;;;3.92;2.08;;;21.90;33.70;;;;;;5037083;28;20033;-56
2022/02/08 02:05:07;;;;;;;2.83;1.70;;;21.90;33.80;;;;;;5036903;28;20033;-52
2022/02/08 02:07:34;;;;;;;4.10;2.08;;;21.80;33.70;;;;;;5036707;28;20029;-54
2022/02/08 02:10:05;;;;;;;3.58;2.22;;;21.90;33.80;;;;;;5039537;28;20046;-50
2022/02/08 02:12:31;;;;;;;4.10;2.30;;;21.90;33.80;;;;;;5054336;28;20094;-56
2022/02/08 02:15:02;;;;;;;3.00;1.98;;;21.80;33.80;;;;;;5027491;28;20022;-48
2022/02/08 02:17:28;;;;;;;3.08;2.10;;;21.90;33.90;;;;;;5027115;28;20021;-53
2022/02/08 02:19:54;;;;;;;4.22;2.22;;;21.80;33.90;;;;;;5018379;28;20017;-54
2022/02/08 02:22:20;;;;;;;4.30;1.70;;;21.90;34.00;;;;;;5047432;28;20028;-50
2022/02/08 02:24:46;;;;;;;3.22;1.70;;;21.80;33.90;;;;;;5029169;28;20056;-54
2022/02/08 02:27:12;;;;;;;2.55;1.67;;;21.80;34.00;;;;;;5017696;28;20034;-52
2022/02/08 02:29:39;;;;;;;1.92;1.48;;;21.80;34.00;;;;;;5021496;28;20032;-53
2022/02/08 02:32:06;;;;;;;3.08;1.80;;;21.80;34.70;;;;;;5017470;28;20044;-51
2022/02/08 02:34:32;;;;;;;3.70;1.70;;;21.80;34.10;;;;;;5024583;28;20031;-55
2022/02/08 02:36:59;;;;;;;2.65;1.95;;;21.80;34.10;;;;;;5037799;28;20336;-54
2022/02/08 02:39:29;;;;;;;3.22;1.70;;;21.80;34.10;;;;;;5030908;28;20067;-48
2022/02/08 02:41:57;;;;;;;3.45;1.90;;;21.80;34.20;;;;;;5037090;28;20025;-52
2022/02/08 02:44:24;;;;;;;3.15;1.88;;;21.80;34.20;;;;;;5031363;28;20419;-51
2022/02/08 02:46:51;;;;;;;3.13;1.75;;;21.80;34.20;;;;;;5037564;28;20052;-54
2022/02/08 02:49:18;;;;;;;2.30;1.60;;;21.80;34.30;;;;;;5027126;28;20112;-53
2022/02/08 02:51:45;;;;;;;3.10;1.88;;;21.80;34.30;;;;;;5033924;28;20030;-52
2022/02/08 02:54:17;;;;;;;2.90;2.03;;;21.80;34.30;;;;;;5018688;28;20033;-52
2022/02/08 02:56:47;;;;;;;2.17;1.17;;;21.80;34.30;;;;;;5017227;28;20044;-48
2022/02/08 02:59:17;;;;;;;2.58;1.42;;;21.80;34.40;;;;;;5033982;28;20037;-55
2022/02/08 03:04:31;;;;;;;2.53;1.50;;;21.80;34.50;;;;;;5023062;28;20167;-52
2022/02/08 03:20:24;;;;;;;2.13;1.38;;;21.70;34.60;;;;;;5032092;28;20484;-55
2022/02/08 03:22:55;;;;;;;1.90;1.20;;;21.70;34.60;;;;;;5032269;28;20125;-48
2022/02/08 03:25:21;;;;;;;3.03;1.55;;;21.70;34.70;;;;;;5058002;28;20037;-51
2022/02/08 03:27:48;;;;;;;2.53;1.50;;;21.70;34.70;;;;;;5025182;28;20033;-52
2022/02/08 03:30:15;;;;;;;2.55;1.58;;;21.70;34.80;;;;;;5030393;28;20191;-49
2022/02/08 03:32:42;;;;;;;2.42;1.65;;;21.70;34.80;;;;;;5048987;28;20087;-57
2022/02/08 03:35:10;;;;;;;2.55;1.50;;;21.70;34.90;;;;;;5039511;28;20025;-55
2022/02/08 03:37:36;;;;;;;3.00;1.80;;;21.70;34.90;;;;;;5032729;28;20116;-50
2022/02/08 03:40:11;;;;;;;3.97;1.80;;;21.70;34.90;;;;;;5046852;28;20101;-55
2022/02/08 03:42:45;;;;;;;3.05;1.88;;;21.70;35.00;;;;;;5043607;28;20056;-49
2022/02/08 03:45:14;;;;;;;1.92;1.42;;;21.70;35.00;;;;;;5035607;28;20044;-51
2022/02/08 03:47:41;;;;;;;3.13;1.88;;;21.70;35.00;;;;;;5039081;28;20425;-51
2022/02/08 03:50:07;;;;;;;2.53;1.58;;;21.70;35.00;;;;;;5019249;28;20433;-53
2022/02/08 03:52:34;;;;;;;2.65;1.77;;;21.70;35.10;;;;;;5026572;28;20017;-51
2022/02/08 03:55:01;;;;;;;3.92;1.55;;;21.70;35.10;;;;;;5019541;28;20029;-50
2022/02/08 03:57:28;;;;;;;2.40;1.60;;;21.70;35.10;;;;;;5037343;28;20029;-52
2022/02/08 03:59:58;;;;;;;2.30;1.40;;;21.70;35.20;;;;;;5008478;28;1135115;-49
2022/02/08 04:04:58;;;;;;;2.67;1.58;;;21.60;35.20;;;;;;5054748;28;20515;-53
2022/02/08 04:07:31;;;;;;;2.25;1.40;;;21.60;35.20;;;;;;5053450;28;20499;-47
2022/02/08 04:10:04;;;;;;;4.00;1.33;;;21.60;35.20;;;;;;5043301;28;20493;-51
2022/02/08 04:12:47;;;;;;;2.13;1.33;;;21.60;35.30;;;;;;5041019;28;20024;-53
2022/02/08 04:32:05;;;;;;;1.98;1.30;;;21.60;35.50;;;;;;5037237;28;20464;-54
2022/02/08 04:42:26;;;;;;;1.70;1.20;;;21.60;35.70;;;;;;5049207;28;20039;-50
2022/02/08 04:45:09;;;;;;;2.63;1.40;;;21.50;35.70;;;;;;5057387;28;20128;-51
2022/02/08 04:47:41;;;;;;;1.60;1.08;;;21.50;35.70;;;;;;5049433;28;20025;-54
2022/02/08 04:50:09;;;;;;;2.00;1.20;;;21.50;35.70;;;;;;5049032;28;20439;-57
2022/02/08 04:52:35;;;;;;;1.50;1.20;;;21.50;35.80;;;;;;5043655;28;20467;-53
2022/02/08 04:55:28;;;;;;;3.13;1.30;;;21.50;35.80;;;;;;5037082;28;20030;-52
2022/02/08 04:58:21;;;;;;;2.80;1.35;;;21.50;35.80;;;;;;5042910;28;20084;-49
2022/02/08 05:00:46;;;;;;;1.70;1.08;;;21.50;35.90;;;;;;5047360;28;20345;-50
2022/02/08 05:44:05;;;;;;;1.23;0.85;;;21.40;36.10;;;;;;5049435;28;20033;-53
2022/02/08 05:46:48;;;;;;;0.80;0.70;;;21.40;36.20;;;;;;5045763;28;20110;-50
2022/02/08 05:49:23;;;;;;;2.60;1.10;;;21.40;36.20;;;;;;5057455;28;20436;-56
2022/02/08 05:54:15;;;;;;;1.95;0.88;;;21.40;36.30;;;;;;5053692;28;20043;-51
2022/02/08 05:56:41;;;;;;;1.30;0.90;;;21.40;36.30;;;;;;5056033;28;20037;-51
2022/02/08 05:59:10;;;;;;;1.52;1.02;;;21.40;36.30;;;;;;5053321;28;20045;-49
2022/02/08 06:01:36;;;;;;;2.15;0.90;;;21.40;36.30;;;;;;5054632;28;20029;-54
2022/02/08 06:04:21;;;;;;;1.73;0.80;;;21.40;36.30;;;;;;5028014;28;20441;-51
2022/02/08 06:06:47;;;;;;;1.60;0.80;;;21.40;36.30;;;;;;5018110;28;20033;-54
2022/02/08 06:09:13;;;;;;;1.23;0.85;;;21.40;36.40;;;;;;5038874;28;20445;-58
2022/02/08 06:11:40;;;;;;;1.75;1.13;;;21.40;36.40;;;;;;5018354;28;20021;-53
2022/02/08 06:14:07;;;;;;;5.90;0.98;;;21.40;36.40;;;;;;5019723;28;20478;-58
2022/02/08 06:16:34;;;;;;;1.63;0.88;;;21.40;36.40;;;;;;5022218;28;20077;-54
2022/02/08 06:19:02;;;;;;;1.85;1.02;;;21.40;36.40;;;;;;5035598;28;20029;-51
2022/02/08 06:21:28;;;;;;;1.35;0.70;;;21.40;36.40;;;;;;5023379;28;20310;-52
2022/02/08 06:23:54;;;;;;;1.73;0.80;;;21.40;36.40;;;;;;5048554;28;20029;-50
2022/02/08 06:26:22;;;;;;;1.85;0.90;;;21.40;36.40;;;;;;5038184;28;20037;-56
2022/02/08 06:28:55;;;;;;;1.83;0.82;;;21.40;36.40;;;;;;5054489;28;20021;-53
2022/02/08 06:31:21;;;;;;;0.90;0.57;;;21.40;36.50;;;;;;5051550;28;20439;-56
2022/02/08 06:33:46;;;;;;;1.65;0.80;;;21.40;36.50;;;;;;5030082;28;20024;-56
2022/02/08 06:36:12;;;;;;;1.60;0.80;;;21.40;36.50;;;;;;5051916;28;20063;-55
2022/02/08 06:38:38;;;;;;;1.90;0.68;;;21.40;36.50;;;;;;5028734;28;20106;-57
2022/02/08 06:41:04;;;;;;;2.40;1.05;;;21.40;36.60;;;;;;5053369;28;20090;-53
2022/02/08 06:43:31;;;;;;;1.15;0.65;;;21.40;36.60;;;;;;5043597;28;20033;-56
2022/02/08 06:45:57;;;;;;;1.50;0.93;;;21.40;36.60;;;;;;5034642;28;20048;-50
2022/02/08 06:48:23;;;;;;;1.70;0.90;;;21.40;36.60;;;;;;5034818;28;20425;-51
2022/02/08 06:50:49;;;;;;;1.60;0.90;;;21.40;36.60;;;;;;5034779;28;20048;-55
2022/02/08 06:53:15;;;;;;;0.88;0.77;;;21.40;36.60;;;;;;5027663;28;20021;-48
2022/02/08 06:55:41;;;;;;;1.58;0.80;;;21.40;37.30;;;;;;5036936;28;20029;-52
2022/02/08 06:58:09;;;;;;;1.73;0.80;;;21.40;36.70;;;;;;5044386;28;20060;-58
2022/02/08 07:00:39;;;;;;;1.63;0.80;;;21.40;36.70;;;;;;5054565;28;20024;-53
2022/02/08 07:03:09;;;;;;;0.90;0.60;;;21.40;36.70;;;;;;5044919;28;20049;-54
2022/02/08 07:05:36;;;;;;;0.98;0.60;;;21.40;36.70;;;;;;5051139;28;20051;-48
2022/02/08 07:08:02;;;;;;;2.03;0.90;;;21.40;36.70;;;;;;5042097;28;20021;-54
2022/02/08 07:10:29;;;;;;;3.47;1.00;;;21.40;36.70;;;;;;5049307;28;20044;-56
2022/02/08 07:12:55;;;;;;;1.13;0.70;;;21.40;36.80;;;;;;5034720;28;20034;-55
2022/02/08 07:15:21;;;;;;;1.33;0.80;;;21.40;36.80;;;;;;5052773;28;20037;-54
2022/02/08 07:17:48;;;;;;;0.98;0.63;;;21.40;36.80;;;;;;5044220;28;20025;-48
2022/02/08 07:20:14;;;;;;;1.45;0.82;;;21.40;36.80;;;;;;5053218;28;20083;-51
2022/02/08 07:22:41;;;;;;;1.85;0.77;;;21.40;36.80;;;;;;5034695;28;20025;-56
2022/02/08 07:25:07;;;;;;;1.23;0.68;;;21.40;36.80;;;;;;5053745;28;20033;-54
2022/02/08 07:27:33;;;;;;;1.20;0.57;;;21.40;36.90;;;;;;5048929;28;20507;-52
2022/02/08 07:29:59;;;;;;;0.88;0.60;;;21.40;36.80;;;;;;5053604;28;20075;-54
2022/02/08 07:32:35;;;;;;;1.02;0.60;;;21.30;37.40;;;;;;5048292;28;20021;-52
2022/02/08 07:37:49;;;;;;;1.17;0.80;;;21.40;36.90;;;;;;5038032;28;20037;-52
2022/02/08 07:42:59;;;;;;;1.95;1.10;;;21.40;36.90;;;;;;5047719;28;20094;-52
2022/02/08 07:45:41;;;;;;;1.52;0.82;;;21.30;36.90;;;;;;5035309;28;20025;-56
2022/02/08 07:48:08;;;;;;;2.92;0.95;;;21.30;36.90;;;;;;5052849;28;20024;-55
2022/02/08 07:50:38;;;;;;;2.72;1.10;;;21.30;37.00;;;;;;5048970;28;20021;-55
2022/02/08 07:53:08;;;;;;;4.53;1.20;;;21.30;37.10;;;;;;5054119;28;20049;-53
2022/02/08 07:55:34;;;;;;;5.82;1.38;;;21.30;37.10;;;;;;5054020;28;20108;-54
2022/02/08 07:57:59;;;;;;;3.60;1.20;;;21.30;37.20;;;;;;5058766;28;20109;-54
2022/02/08 08:00:25;;;;;;;3.00;1.60;;;21.40;37.20;;;;;;5025591;28;20029;-55
2022/02/08 08:02:53;;;;;;;2.28;1.08;;;21.40;37.10;;;;;;5039015;28;20048;-51
2022/02/08 08:05:20;;;;;;;3.97;1.20;;;21.50;37.10;;;;;;5056319;28;20344;-53
2022/02/08 08:07:46;;;;;;;2.72;1.08;;;21.60;37.10;;;;;;5056355;28;20025;-53
2022/02/08 08:10:19;;;;;;;4.35;1.27;;;21.70;37.00;;;;;;5048336;28;20107;-54
2022/02/08 08:12:49;;;;;;;3.33;1.30;;;21.80;36.90;;;;;;5037476;28;20437;-55
2022/02/08 08:15:33;;;;;;;1.88;1.00;;;21.90;36.80;;;;;;5038455;28;20033;-56
2022/02/08 08:18:12;;;;;;;1.90;0.90;;;22.00;36.70;;;;;;5038510;28;20100;-53
2022/02/08 08:20:38;;;;;;;2.58;1.10;;;22.10;36.60;;;;;;5041542;28;20048;-55
2022/02/08 08:23:04;;;;;;;2.33;1.00;;;22.20;36.50;;;;;;5045518;28;20025;-51
2022/02/08 08:25:30;;;;;;;3.63;0.98;;;22.30;36.40;;;;;;5029930;28;20044;-57
2022/02/08 08:27:55;;;;;;;2.42;1.27;;;22.40;36.30;;;;;;5056083;28;20064;-55
2022/02/08 08:30:21;;;;;;;3.30;1.20;;;22.40;36.20;;;;;;5051559;28;20378;-55
2022/02/08 08:32:47;;;;;;;2.30;1.05;;;22.50;36.80;;;;;;5045334;28;20021;-55
2022/02/08 08:35:19;;;;;;;1.58;0.80;;;22.60;36.20;;;;;;5055363;28;20151;-52
2022/02/08 08:37:47;;;;;;;2.58;1.05;;;22.60;36.00;;;;;;5038089;28;20017;-55
2022/02/08 08:40:22;;;;;;;3.38;1.23;;;22.70;36.00;;;;;;5047634;28;20043;-53
2022/02/08 08:43:21;;;;;;;2.38;1.20;;;22.80;36.00;;;;;;5056768;28;20107;-54
2022/02/08 08:48:44;;;;;;;4.15;1.25;;;22.90;35.90;;;;;;5055237;28;20029;-57
2022/02/08 08:53:55;;;;;;;3.95;1.45;;;23.00;36.00;;;;;;5053910;28;20028;-55
2022/02/08 08:56:21;;;;;;;2.13;1.10;;;23.00;36.00;;;;;;5056399;28;20085;-53
2022/02/08 08:58:49;;;;;;;3.53;1.52;;;23.10;36.00;;;;;;5041317;28;20124;-56
2022/02/08 09:01:19;;;;;;;3.95;2.17;;;23.10;35.90;;;;;;5042564;28;20313;-57
2022/02/08 09:03:47;;;;;;;3.45;1.88;;;23.20;35.90;;;;;;5054136;28;20052;-57
2022/02/08 09:06:13;;;;;;;3.05;1.73;;;23.20;35.80;;;;;;5043310;28;20120;-59
2022/02/08 09:08:41;;;;;;;2.60;1.58;;;23.30;35.80;;;;;;5041518;28;20163;-60
2022/02/08 09:11:15;;;;;;;5.72;2.45;;;23.30;35.80;;;;;;5047550;28;20024;-60
2022/02/08 09:13:48;;;;;;;5.18;2.47;;;23.40;35.80;;;;;;5050017;28;20024;-60
2022/02/08 09:16:30;;;;;;;6.15;2.90;;;23.40;35.80;;;;;;5054820;28;20044;-56
2022/02/08 09:21:40;;;;;;;4.40;3.08;;;23.50;35.80;;;;;;5054671;28;20467;-54
2022/02/08 09:26:49;;;;;;;3.75;2.55;;;23.50;35.60;;;;;;5053179;28;20064;-52
2022/02/08 09:29:24;;;;;;;3.75;2.53;;;23.60;35.60;;;;;;5037305;28;20040;-53
2022/02/08 09:32:00;;;;;;;5.38;3.00;;;23.60;35.50;;;;;;5048129;28;20078;-51
2022/02/08 09:34:29;;;;;;;3.22;2.47;;;23.60;35.40;;;;;;5049974;28;20064;-51
2022/02/08 09:36:54;;;;;;;4.57;2.85;;;23.60;36.00;;;;;;5037109;28;20417;-54
2022/02/08 09:39:20;;;;;;;4.55;3.00;;;23.70;36.00;;;;;;5040654;28;20032;-53
2022/02/08 09:41:50;;;;;;;4.45;3.00;;;23.70;35.30;;;;;;5056152;28;20025;-52
2022/02/08 09:44:18;;;;;;;5.82;3.30;;;23.70;35.30;;;;;;5033477;28;20219;-60
2022/02/08 09:46:44;;;;;;;4.45;3.15;;;23.70;35.20;;;;;;5035612;28;20097;-53
2022/02/08 09:49:11;;;;;;;4.95;3.20;;;23.80;35.20;;;;;;5036907;28;20032;-54
2022/02/08 09:51:39;;;;;;;4.35;3.30;;;23.80;35.20;;;;;;5046176;28;20116;-53
2022/02/08 09:54:05;;;;;;;4.88;3.47;;;23.80;35.20;;;;;;5055354;28;20112;-59
2022/02/08 09:56:31;;;;;;;4.60;3.92;;;23.80;35.20;;;;;;5043864;28;20389;-56
2022/02/08 09:58:59;;;;;;;6.18;4.13;;;23.80;35.10;;;;;;5035801;28;20053;-58
2022/02/08 10:01:25;;;;;;;6.68;4.70;;;23.80;35.20;;;;;;5042962;28;20064;-55
2022/02/08 10:03:56;;;;;;;6.18;4.78;;;23.70;35.20;;;;;;5035862;28;20120;-51
2022/02/08 10:06:26;;;;;;;7.63;5.38;;;23.70;35.20;;;;;;5036361;28;20091;-53
2022/02/08 10:09:03;;;;;;;7.25;5.10;;;23.70;35.20;;;;;;5046531;28;20458;-55
2022/02/08 10:14:27;;;;;;;7.18;5.88;;;23.60;35.30;;;;;;5035333;28;20036;-55
2022/02/08 10:22:32;;;;;;;9.57;7.72;;;23.50;35.50;;;;;;5054160;28;20035;-54
2022/02/08 10:25:06;;;;;;;8.15;6.70;;;23.40;35.60;;;;;;5054988;28;20126;-55
2022/02/08 10:27:36;;;;;;;9.87;8.07;;;23.30;35.60;;;;;;5036099;28;20025;-57
2022/02/08 10:38:24;;;;;;;10.95;8.30;;;23.20;35.80;;;;;;5041529;28;20060;-52
2022/02/08 10:40:56;;;;;;;9.65;8.13;;;23.20;35.90;;;;;;5053623;28;20043;-56
2022/02/08 10:43:21;;;;;;;10.45;9.10;;;23.20;36.00;;;;;;5054489;28;20444;-57
2022/02/08 10:45:47;;;;;;;10.48;8.50;;;23.20;36.10;;;;;;5026579;28;20049;-54
2022/02/08 10:48:18;;;;;;;10.80;9.05;;;23.10;36.70;;;;;;5034949;28;20033;-53
2022/02/08 10:50:51;;;;;;;11.00;9.27;;;23.10;36.10;;;;;;5044182;28;20028;-56
2022/02/08 10:53:19;;;;;;;12.07;9.95;;;23.10;36.20;;;;;;5039924;28;20029;-53
2022/02/08 10:56:04;;;;;;;12.02;9.50;;;23.10;36.20;;;;;;5021697;28;20037;-56
2022/02/08 10:58:38;;;;;;;10.75;8.77;;;23.10;36.20;;;;;;5054697;28;20051;-57
2022/02/08 11:01:10;;;;;;;9.75;8.60;;;23.10;36.20;;;;;;5041695;28;20374;-54
2022/02/08 11:03:47;;;;;;;11.18;9.30;;;23.10;36.20;;;;;;5051723;28;20037;-57
2022/02/08 11:06:36;;;;;;;12.00;9.38;;;23.10;36.20;;;;;;5037018;28;20053;-57
2022/02/08 11:11:59;;;;;;;9.95;8.20;;;23.10;36.20;;;;;;5040743;28;20032;-50
2022/02/08 11:14:45;;;;;;;11.48;9.75;;;23.10;36.20;;;;;;5042358;28;20040;-54
2022/02/08 11:24:56;;;;;;;10.60;8.65;;;23.00;36.20;;;;;;5049545;28;20067;-53
2022/02/08 11:27:34;;;;;;;9.93;8.88;;;23.10;36.30;;;;;;5053125;28;20096;-61
2022/02/08 11:30:10;;;;;;;9.77;8.68;;;23.10;36.30;;;;;;5052069;28;20016;-63
2022/02/08 11:39:08;;;;;;;12.20;10.15;;;23.10;36.70;;;;;;5038379;28;20379;-60
2022/02/08 11:46:31;;;;;;;14.73;12.50;;;23.10;36.90;;;;;;5040385;28;20037;-57
2022/02/08 11:49:29;;;;;;;15.60;11.75;;;23.20;37.00;;;;;;5034833;28;20021;-60
2022/02/08 12:00:34;;;;;;;14.65;13.00;;;23.40;37.00;;;;;;5033495;28;20041;-54
2022/02/08 12:08:52;;;;;;;13.88;12.38;;;23.50;37.00;;;;;;5048621;28;20436;-58
2022/02/08 12:33:11;;;;;;;16.23;13.63;;;23.60;37.30;;;;;;5041420;28;20032;-53
2022/02/08 12:55:26;;;;;;;13.75;12.30;;;23.60;37.20;;;;;;5027287;28;20368;-55
2022/02/08 13:00:48;;;;;;;14.82;13.23;;;23.70;37.50;;;;;;5046665;28;20436;-59
2022/02/08 14:08:17;;;;;;;9.63;8.63;;;23.50;37.10;;;;;;5047097;28;20033;-54
2022/02/08 14:24:15;;;;;;;14.23;12.75;;;23.40;37.60;;;;;;5024985;28;20329;-56
2022/02/08 14:32:34;;;;;;;15.45;13.50;;;23.50;37.90;;;;;;5041564;28;20024;-58
2022/02/08 15:00:23;;;;;;;10.52;9.43;;;23.50;37.10;;;;;;5042363;28;20047;-60
2022/02/08 15:05:48;;;;;;;10.88;9.77;;;23.50;36.90;;;;;;5044290;28;20083;-61
2022/02/08 15:13:11;;;;;;;11.60;10.45;;;23.60;36.70;;;;;;5042371;28;20083;-58
2022/02/08 15:16:00;;;;;;;11.15;9.93;;;23.60;36.60;;;;;;5048036;28;20031;-56
2022/02/08 15:18:28;;;;;;;11.07;9.63;;;23.60;36.60;;;;;;5058048;28;20098;-61
2022/02/08 15:20:55;;;;;;;10.57;9.45;;;23.60;36.50;;;;;;5050958;28;20025;-65
2022/02/08 15:23:22;;;;;;;10.77;9.48;;;23.60;36.40;;;;;;5031026;28;20025;-56
2022/02/08 15:25:53;;;;;;;11.82;10.52;;;23.70;36.40;;;;;;5046912;28;20064;-54
2022/02/08 15:28:22;;;;;;;11.18;9.93;;;23.70;36.40;;;;;;5045269;28;20029;-58
2022/02/08 15:30:48;;;;;;;11.48;10.27;;;23.70;36.40;;;;;;5041841;28;20021;-59
2022/02/08 15:33:14;;;;;;;10.50;9.45;;;23.70;36.30;;;;;;5049170;28;20026;-59
2022/02/08 15:35:40;;;;;;;11.02;9.93;;;23.70;36.30;;;;;;5043386;28;20139;-56
2022/02/08 15:38:06;;;;;;;11.32;10.02;;;23.70;36.20;;;;;;5043581;28;20036;-54
2022/02/08 15:40:33;;;;;;;11.70;10.32;;;23.80;36.20;;;;;;5043192;28;20340;-55
2022/02/08 15:43:00;;;;;;;11.07;9.93;;;23.70;36.10;;;;;;5043685;28;20092;-55
2022/02/08 15:45:31;;;;;;;10.95;9.80;;;23.70;36.00;;;;;;5050378;28;20033;-52
2022/02/08 15:47:59;;;;;;;11.10;9.85;;;23.80;36.00;;;;;;5046366;28;20029;-60
2022/02/08 15:50:36;;;;;;;10.88;9.77;;;23.80;36.00;;;;;;5045877;28;20066;-58
2022/02/08 16:01:03;;;;;;;10.82;9.73;;;23.80;35.90;;;;;;5052333;28;20079;-53
2022/02/08 16:09:27;;;;;;;11.00;9.90;;;23.90;35.90;;;;;;5038182;28;20014;-58
2022/02/08 16:11:49;;;;;;;10.95;9.80;;;23.90;35.90;;;;;;5035570;28;20095;-60
2022/02/08 16:14:33;;;;;;;10.40;9.30;;;23.90;35.90;;;;;;5044333;28;20026;-62
2022/02/08 16:19:54;;;;;;;8.07;7.28;;;23.90;35.70;;;;;;5026168;28;20280;-58
2022/02/08 16:54:52;;;;;;;10.68;8.13;;;23.70;35.60;;;;;;5019543;28;20048;-57
2022/02/08 16:57:22;;;;;;;10.38;8.70;;;23.70;35.60;;;;;;5041911;28;20037;-57
2022/02/08 16:59:48;;;;;;;9.43;8.45;;;23.70;35.60;;;;;;5038651;28;20049;-57
2022/02/08 17:02:20;;;;;;;9.13;8.23;;;23.70;35.50;;;;;;5044848;28;20020;-50
2022/02/08 17:04:47;;;;;;;9.75;8.38;;;23.70;35.50;;;;;;5043585;28;20064;-58
2022/02/08 17:07:13;;;;;;;9.80;8.60;;;23.70;35.50;;;;;;5043514;28;20021;-55
2022/02/08 17:09:46;;;;;;;9.82;8.82;;;23.70;35.50;;;;;;5042946;28;20033;-57
2022/02/08 17:12:23;;;;;;;9.70;8.55;;;23.70;35.40;;;;;;5036737;28;20356;-59
2022/02/08 17:45:42;;;;;;;10.55;9.48;;;24.00;35.90;;;;;;5043875;28;20047;-58
2022/02/08 17:48:05;;;;;;;12.05;9.25;;;24.00;35.90;;;;;;5043555;28;20056;-59
2022/02/08 17:50:31;;;;;;;11.52;9.77;;;24.10;36.00;;;;;;5045788;28;20021;-57
2022/02/08 17:52:57;;;;;;;11.27;10.10;;;24.10;36.00;;;;;;5044954;28;20021;-58
2022/02/08 17:55:24;;;;;;;10.68;9.55;;;24.10;35.90;;;;;;5049832;28;20045;-60
2022/02/08 17:57:50;;;;;;;11.02;9.93;;;24.20;36.00;;;;;;5019068;28;20421;-53
2022/02/08 18:00:17;;;;;;;10.95;9.85;;;24.20;36.00;;;;;;5037079;28;20053;-53
2022/02/08 18:02:44;;;;;;;10.75;9.65;;;24.20;35.90;;;;;;5045220;28;20382;-57
2022/02/08 18:05:14;;;;;;;11.38;10.00;;;24.20;35.90;;;;;;5033187;28;20379;-51
2022/02/08 18:07:40;;;;;;;9.95;8.93;;;24.20;35.80;;;;;;5041653;28;20436;-50
2022/02/08 18:10:07;;;;;;;10.63;9.55;;;24.10;35.70;;;;;;5037775;28;20076;-50
2022/02/08 18:12:34;;;;;;;10.80;9.77;;;24.10;35.70;;;;;;5050635;28;20033;-56
2022/02/08 18:15:05;;;;;;;9.95;8.93;;;24.10;35.70;;;;;;5044674;28;20016;-53
2022/02/08 18:17:39;;;;;;;11.27;10.13;;;24.10;35.60;;;;;;5052125;28;20021;-50
2022/02/08 18:22:50;;;;;;;11.18;9.98;;;24.00;35.60;;;;;;5049690;28;20401;-51
2022/02/08 19:09:33;;;;;;;10.43;9.38;;;23.30;35.80;;;;;;5034636;28;20040;-50
2022/02/08 19:11:50;;;;;;;11.13;10.05;;;23.30;35.90;;;;;;5038930;28;20123;-54
2022/02/08 19:22:00;;;;;;;13.45;11.45;;;23.20;36.10;;;;;;5052509;28;20035;-54
2022/02/08 19:24:27;;;;;;;13.85;12.27;;;23.20;36.20;;;;;;5051869;28;20043;-52
2022/02/08 19:26:57;;;;;;;12.10;10.88;;;23.20;36.20;;;;;;5050935;28;20128;-57
2022/02/08 19:29:26;;;;;;;12.30;10.63;;;23.20;36.20;;;;;;5047405;28;20035;-53
2022/02/08 19:31:53;;;;;;;13.30;10.30;;;23.10;36.30;;;;;;5049793;28;20076;-55
2022/02/08 19:34:19;;;;;;;11.68;10.50;;;23.20;36.20;;;;;;5042649;28;20055;-51
2022/02/08 19:36:46;;;;;;;12.63;10.75;;;23.10;36.20;;;;;;5063201;28;20037;-53
2022/02/08 19:39:14;;;;;;;11.77;10.35;;;23.20;36.20;;;;;;5061426;28;20033;-53
2022/02/08 19:41:41;;;;;;;13.05;11.63;;;23.20;36.20;;;;;;5047798;28;20074;-51
2022/02/08 19:44:09;;;;;;;14.75;12.20;;;23.20;36.20;;;;;;5054666;28;20036;-53
2022/02/08 19:46:41;;;;;;;13.00;11.63;;;23.20;36.20;;;;;;5055595;28;20028;-56
2022/02/08 19:49:08;;;;;;;13.55;12.15;;;23.10;36.20;;;;;;5055935;28;20100;-55
2022/02/08 19:51:34;;;;;;;13.15;11.75;;;23.10;36.30;;;;;;5045597;28;20109;-51
2022/02/08 19:54:02;;;;;;;14.13;11.93;;;23.10;36.30;;;;;;5048851;28;20029;-58
2022/02/08 19:56:33;;;;;;;14.48;12.98;;;23.10;36.30;;;;;;5038674;28;20431;-54
2022/02/08 19:59:00;;;;;;;13.27;11.88;;;23.00;36.30;;;;;;5046484;28;20049;-53
2022/02/08 20:01:34;;;;;;;12.35;11.05;;;23.00;36.40;;;;;;5024255;28;20017;-51
2022/02/08 20:04:19;;;;;;;15.20;13.10;;;23.00;36.40;;;;;;5037678;28;20356;-51
2022/02/08 20:06:46;;;;;;;13.25;11.85;;;23.00;36.50;;;;;;5038605;28;20045;-57
2022/02/08 20:09:12;;;;;;;13.98;12.00;;;23.00;36.50;;;;;;5037679;28;20029;-57
2022/02/08 20:11:38;;;;;;;13.77;12.32;;;23.00;36.60;;;;;;5041172;28;20017;-53
2022/02/08 20:14:07;;;;;;;15.10;11.30;;;23.00;36.60;;;;;;5042084;28;20022;-55
2022/02/08 20:16:35;;;;;;;13.75;12.02;;;22.90;36.50;;;;;;5047350;28;20039;-55
2022/02/08 20:19:03;;;;;;;12.88;11.20;;;23.00;36.60;;;;;;5053058;28;20079;-55
2022/02/08 20:21:30;;;;;;;13.82;12.38;;;22.90;36.60;;;;;;5040281;28;20056;-59
2022/02/08 20:24:02;;;;;;;12.82;11.48;;;23.00;36.60;;;;;;5038739;28;20087;-60
2022/02/08 20:29:24;;;;;;;11.15;9.73;;;22.90;36.60;;;;;;5027056;28;20037;-55
2022/02/08 20:31:52;;;;;;;13.05;11.15;;;22.90;36.60;;;;;;5044947;28;20059;-50
2022/02/08 20:34:20;;;;;;;17.23;15.07;;;22.90;36.60;;;;;;5035881;28;20091;-53
2022/02/08 20:36:46;;;;;;;20.05;17.23;;;22.90;36.80;;;;;;5041749;28;20037;-55
2022/02/08 20:39:13;;;;;;;22.00;19.50;;;22.90;37.20;;;;;;5045544;28;20112;-52
2022/02/08 20:41:40;;;;;;;22.08;19.70;;;22.90;37.40;;;;;;5037193;28;20091;-53
2022/02/08 20:44:09;;;;;;;21.15;18.90;;;22.90;37.60;;;;;;5049351;28;20455;-56